createdAt,value
2023-02-21T00:02:12.242Z,35.70
2023-02-21T00:04:58.223Z,23.23
2023-02-21T00:07:44.935Z,25.40
2023-02-21T00:10:33.636Z,33.97
2023-02-21T00:13:19.956Z,26.80
2023-02-21T00:16:05.894Z,26.75
2023-02-21T00:18:55.182Z,27.83
2023-02-21T00:21:42.211Z,25.23
2023-02-21T00:24:33.323Z,33.00
2023-02-21T00:27:19.212Z,31.85
2023-02-21T00:30:07.495Z,31.88
2023-02-21T00:32:54.264Z,31.05
2023-02-21T00:35:40.898Z,27.17
2023-02-21T00:38:26.851Z,26.35
2023-02-21T00:41:12.771Z,33.92
2023-02-21T00:43:59.486Z,28.42
2023-02-21T00:46:46.220Z,34.70
2023-02-21T00:49:32.264Z,31.90
2023-02-21T00:52:18.070Z,28.35
2023-02-21T00:55:04.496Z,31.38
2023-02-21T00:57:50.424Z,43.30
2023-02-21T01:00:39.852Z,30.25
2023-02-21T01:03:26.981Z,33.13
2023-02-21T01:06:15.476Z,24.55
2023-02-21T01:09:06.508Z,26.73
2023-02-21T01:11:57.361Z,31.45
2023-02-21T01:14:43.234Z,42.58
2023-02-21T01:17:29.225Z,28.00
2023-02-21T01:20:15.184Z,25.70
2023-02-21T01:23:01.318Z,38.95
2023-02-21T01:25:47.145Z,27.08
2023-02-21T01:28:33.343Z,40.00
2023-02-21T01:31:22.838Z,31.45
2023-02-21T01:34:09.535Z,24.77
2023-02-21T01:36:55.685Z,30.70
2023-02-21T01:39:41.974Z,27.83
2023-02-21T01:42:29.336Z,33.95
2023-02-21T01:45:40.263Z,31.70
2023-02-21T01:48:30.350Z,27.80
2023-02-21T01:51:18.202Z,30.25
2023-02-21T01:54:05.106Z,29.00
2023-02-21T01:56:51.907Z,33.25
2023-02-21T01:59:40.444Z,34.88
2023-02-21T02:02:52.332Z,38.28
2023-02-21T02:05:39.826Z,32.10
2023-02-21T02:08:26.248Z,19.77
2023-02-21T02:11:27.384Z,29.13
2023-02-21T02:14:02.203Z,22.83
2023-02-21T02:16:53.119Z,31.55
2023-02-21T02:20:11.538Z,34.20
2023-02-21T02:23:21.847Z,35.22
2023-02-21T02:26:25.284Z,42.90
2023-02-21T02:29:07.449Z,42.25
2023-02-21T02:31:53.056Z,37.70
2023-02-21T02:34:26.133Z,39.95
2023-02-21T02:37:13.449Z,40.97
2023-02-21T02:39:49.810Z,35.15
2023-02-21T02:42:31.324Z,46.30
2023-02-21T02:45:05.219Z,49.25
2023-02-21T02:47:37.584Z,38.22
2023-02-21T02:50:09.846Z,48.35
2023-02-21T02:52:38.949Z,36.55
2023-02-21T02:55:28.500Z,53.88
2023-02-21T02:57:59.360Z,52.33
2023-02-21T03:00:27.939Z,41.60
2023-02-21T03:03:03.680Z,39.60
2023-02-21T03:05:51.614Z,44.90
2023-02-21T03:08:43.239Z,56.90
2023-02-21T03:11:25.550Z,39.92
2023-02-21T03:14:15.941Z,44.25
2023-02-21T03:16:55.686Z,38.63
2023-02-21T03:19:28.075Z,30.15
2023-02-21T03:22:24.705Z,35.90
2023-02-21T03:24:55.944Z,37.72
2023-02-21T03:27:26.780Z,43.17
2023-02-21T03:30:13.146Z,41.15
2023-02-21T03:32:46.403Z,36.75
2023-02-21T03:35:15.484Z,43.78
2023-02-21T03:37:47.053Z,43.72
2023-02-21T03:40:26.661Z,35.90
2023-02-21T03:42:56.167Z,43.15
2023-02-21T03:45:25.014Z,45.22
2023-02-21T03:48:15.508Z,43.75
2023-02-21T03:50:44.014Z,45.72
2023-02-21T03:53:13.170Z,53.38
2023-02-21T03:55:49.588Z,52.13
2023-02-21T03:58:25.653Z,46.78
2023-02-21T04:00:55.927Z,51.90
2023-02-21T04:03:24.012Z,58.20
2023-02-21T04:05:58.509Z,51.30
2023-02-21T04:08:26.525Z,58.63
2023-02-21T04:10:54.068Z,59.03
2023-02-21T04:13:24.652Z,42.05
2023-02-21T04:15:55.638Z,43.50
2023-02-21T04:18:29.690Z,55.97
2023-02-21T04:21:01.200Z,43.63
2023-02-21T04:23:32.167Z,56.20
2023-02-21T04:26:00.030Z,55.63
2023-02-21T04:29:02.782Z,57.50
2023-02-21T04:31:35.167Z,49.08
2023-02-21T04:34:23.370Z,54.55
2023-02-21T04:37:20.089Z,66.20
2023-02-21T04:39:47.911Z,58.15
2023-02-21T04:42:19.744Z,54.63
2023-02-21T04:44:59.830Z,52.58
2023-02-21T04:47:28.803Z,51.67
2023-02-21T04:49:56.292Z,56.03
2023-02-21T04:52:25.821Z,49.92
2023-02-21T04:54:56.404Z,66.10
2023-02-21T04:57:24.761Z,61.35
2023-02-21T05:00:00.252Z,47.47
2023-02-21T05:02:28.224Z,57.95
2023-02-21T05:04:55.924Z,56.88
2023-02-21T05:07:23.879Z,70.28
2023-02-21T05:09:53.982Z,72.13
2023-02-21T05:12:21.704Z,47.92
2023-02-21T05:14:52.749Z,42.50
2023-02-21T05:17:20.485Z,70.18
2023-02-21T05:19:48.567Z,51.10
2023-02-21T05:22:20.476Z,42.92
2023-02-21T05:24:53.887Z,53.75
2023-02-21T05:27:23.886Z,46.45
2023-02-21T05:29:53.987Z,57.42
2023-02-21T05:32:24.258Z,50.75
2023-02-21T05:34:52.216Z,52.05
2023-02-21T05:37:21.499Z,67.47
2023-02-21T05:39:49.270Z,74.32
2023-02-21T05:42:19.373Z,68.82
2023-02-21T05:44:47.796Z,55.80
2023-02-21T05:47:18.292Z,52.10
2023-02-21T05:49:48.678Z,54.47
2023-02-21T05:52:17.699Z,64.55
2023-02-21T05:54:46.923Z,64.65
2023-02-21T05:57:14.772Z,51.70
2023-02-21T05:59:43.608Z,74.25
2023-02-21T06:02:17.412Z,76.57
2023-02-21T06:04:47.990Z,77.30
2023-02-21T06:07:19.548Z,80.78
2023-02-21T06:09:49.809Z,66.93
2023-02-21T06:12:17.460Z,66.50
2023-02-21T06:14:45.122Z,72.53
2023-02-21T06:17:13.409Z,83.10
2023-02-21T06:19:41.133Z,68.25
2023-02-21T06:22:08.806Z,74.22
2023-02-21T06:24:36.397Z,55.92
2023-02-21T06:27:04.490Z,69.20
2023-02-21T06:29:38.489Z,75.13
2023-02-21T06:32:06.135Z,71.22
2023-02-21T06:34:33.856Z,62.20
2023-02-21T06:37:01.727Z,76.57
2023-02-21T06:39:29.398Z,52.20
2023-02-21T06:41:57.035Z,72.35
2023-02-21T06:44:25.573Z,59.85
2023-02-21T06:46:54.949Z,78.72
2023-02-21T06:49:25.570Z,97.93
2023-02-21T06:51:53.418Z,82.82
2023-02-21T06:54:21.831Z,60.03
2023-02-21T06:56:51.451Z,67.13
2023-02-21T06:59:19.229Z,78.63
2023-02-21T07:01:49.313Z,91.57
2023-02-21T07:04:16.953Z,87.38
2023-02-21T07:06:44.640Z,72.10
2023-02-21T07:09:12.490Z,76.35
2023-02-21T07:11:40.641Z,74.22
2023-02-21T07:14:11.416Z,72.93
2023-02-21T07:16:46.787Z,77.68
2023-02-21T07:21:44.523Z,70.82
2023-02-21T07:24:15.178Z,78.05
2023-02-21T07:26:46.099Z,88.22
2023-02-21T07:29:14.334Z,80.50
2023-02-21T07:31:46.613Z,89.20
2023-02-21T07:34:15.327Z,67.00
2023-02-21T07:36:43.265Z,73.13
2023-02-21T07:39:13.715Z,66.43
2023-02-21T07:41:41.514Z,71.35
2023-02-21T07:44:10.577Z,70.68
2023-02-21T07:46:39.620Z,73.75
2023-02-21T07:49:09.718Z,72.82
2023-02-21T07:51:37.570Z,82.57
2023-02-21T07:54:05.288Z,83.22
2023-02-21T07:56:32.952Z,73.68
2023-02-21T07:59:03.284Z,70.35
2023-02-21T08:01:30.886Z,60.92
2023-02-21T08:04:02.526Z,81.78
2023-02-21T08:06:33.875Z,84.80
2023-02-21T08:09:07.194Z,73.32
2023-02-21T08:11:36.843Z,81.38
2023-02-21T08:14:08.055Z,69.28
2023-02-21T08:16:35.676Z,70.72
2023-02-21T08:19:05.758Z,74.22
2023-02-21T08:21:33.352Z,73.80
2023-02-21T08:24:00.949Z,70.32
2023-02-21T08:26:28.796Z,70.78
2023-02-21T08:29:00.852Z,74.80
2023-02-21T08:31:28.670Z,75.85
2023-02-21T08:33:58.968Z,69.45
2023-02-21T08:36:34.093Z,79.80
2023-02-21T08:39:02.009Z,90.05
2023-02-21T08:41:45.286Z,84.85
2023-02-21T08:44:18.784Z,61.40
2023-02-21T08:46:49.890Z,75.18
2023-02-21T08:49:17.682Z,79.72
2023-02-21T08:51:45.461Z,74.68
2023-02-21T08:54:16.204Z,66.78
2023-02-21T08:56:43.804Z,66.53
2023-02-21T08:59:11.566Z,78.25
2023-02-21T09:01:43.430Z,76.72
2023-02-21T09:04:12.373Z,73.95
2023-02-21T09:06:40.139Z,65.88
2023-02-21T09:09:12.100Z,65.40
2023-02-21T09:11:39.982Z,78.38
2023-02-21T09:14:09.890Z,77.35
2023-02-21T09:16:42.012Z,80.55
2023-02-21T09:21:49.682Z,84.15
2023-02-21T09:24:26.055Z,71.68
2023-02-21T09:27:03.344Z,76.50
2023-02-21T09:29:45.042Z,69.72
2023-02-21T09:32:13.573Z,70.25
2023-02-21T09:34:41.552Z,66.22
2023-02-21T09:37:11.692Z,62.30
2023-02-21T09:39:39.545Z,62.67
2023-02-21T09:42:07.362Z,60.70
2023-02-21T09:44:35.417Z,66.97
2023-02-21T09:47:08.086Z,56.70
2023-02-21T09:49:41.894Z,63.55
2023-02-21T09:52:34.515Z,72.00
2023-02-21T09:55:53.515Z,81.90
2023-02-21T09:59:14.416Z,59.63
2023-02-21T10:11:29.392Z,59.90
2023-02-21T10:57:23.699Z,83.63
2023-02-21T10:59:51.955Z,83.45
2023-02-21T11:03:38.382Z,74.13
2023-02-21T11:19:22.230Z,42.53
2023-02-21T11:22:45.904Z,69.15
2023-02-21T11:26:05.573Z,65.95
2023-02-21T11:30:00.760Z,81.45
2023-02-21T11:40:04.139Z,60.33
2023-02-21T11:42:37.201Z,78.85
2023-02-21T11:45:32.717Z,62.85
2023-02-21T11:59:28.154Z,76.60
2023-02-21T12:02:49.691Z,64.93
2023-02-21T12:05:46.157Z,55.72
2023-02-21T12:10:08.572Z,65.70
2023-02-21T12:21:25.592Z,42.13
2023-02-21T12:24:43.256Z,44.10
2023-02-21T12:32:37.042Z,32.03
2023-02-21T12:35:54.857Z,28.50
2023-02-21T13:23:42.782Z,20.58
2023-02-21T13:35:25.926Z,20.27
2023-02-21T13:37:58.575Z,19.17
2023-02-21T13:40:36.995Z,21.60
2023-02-21T13:46:57.227Z,15.82
2023-02-21T13:58:20.189Z,15.88
2023-02-21T14:01:31.801Z,14.43
2023-02-21T14:17:21.122Z,13.40
2023-02-21T14:20:22.605Z,15.38
2023-02-21T14:24:04.546Z,16.50
2023-02-21T14:35:49.772Z,12.02
2023-02-21T14:38:51.035Z,10.52
2023-02-21T14:50:34.782Z,12.25
2023-02-21T15:13:38.055Z,12.85
2023-02-21T15:21:22.506Z,12.35
2023-02-21T15:24:13.092Z,12.85
2023-02-21T15:26:45.431Z,13.00
2023-02-21T15:29:26.002Z,9.52
2023-02-21T15:31:58.800Z,10.85
2023-02-21T15:34:34.284Z,10.20
2023-02-21T15:37:24.880Z,12.77
2023-02-21T15:40:00.167Z,13.43
2023-02-21T15:42:31.645Z,9.93
2023-02-21T15:45:19.124Z,11.68
2023-02-21T15:47:50.093Z,13.00
2023-02-21T15:50:27.565Z,12.30
2023-02-21T15:52:55.790Z,17.75
2023-02-21T15:55:23.513Z,12.70
2023-02-21T15:58:06.737Z,17.55
2023-02-21T16:00:36.012Z,11.35
2023-02-21T16:03:29.148Z,14.38
2023-02-21T16:06:15.582Z,13.50
2023-02-21T16:09:05.751Z,14.07
2023-02-21T16:11:48.414Z,10.82
2023-02-21T16:14:43.360Z,15.02
2023-02-21T16:17:30.324Z,10.55
2023-02-21T16:20:21.687Z,10.80
2023-02-21T16:23:38.847Z,11.52
2023-02-21T16:26:34.186Z,13.27
2023-02-21T16:29:03.674Z,10.90
2023-02-21T16:31:33.974Z,12.55
2023-02-21T16:34:02.809Z,13.50
2023-02-21T16:36:32.029Z,15.90
2023-02-21T16:38:59.691Z,15.13
2023-02-21T16:41:30.283Z,13.00
2023-02-21T16:43:57.920Z,15.35
2023-02-21T16:46:29.960Z,13.25
2023-02-21T16:49:05.735Z,16.85
2023-02-21T17:00:43.256Z,15.45
2023-02-21T17:08:02.484Z,16.58
2023-02-21T17:11:08.927Z,13.80
2023-02-21T17:13:48.339Z,11.23
2023-02-21T17:16:18.984Z,14.45
2023-02-21T17:19:05.231Z,12.85
2023-02-21T17:29:52.324Z,16.02
2023-02-21T17:32:29.706Z,16.83
2023-02-21T17:35:01.692Z,12.88
2023-02-21T17:38:04.132Z,15.88
2023-02-21T17:40:32.252Z,16.25
2023-02-21T17:43:14.219Z,14.50
2023-02-21T17:46:02.356Z,15.95
2023-02-21T17:48:51.304Z,19.30
2023-02-21T17:51:56.102Z,13.20
2023-02-21T18:11:18.264Z,20.73
2023-02-21T18:40:14.581Z,17.20
2023-02-21T18:51:34.694Z,18.33
2023-02-21T18:59:40.890Z,20.60
2023-02-21T19:10:50.850Z,24.90
2023-02-21T19:13:55.755Z,23.92
2023-02-21T19:18:31.957Z,22.95
2023-02-21T19:23:59.203Z,24.67
2023-02-21T19:26:49.587Z,29.23
2023-02-21T19:29:38.388Z,25.55
2023-02-21T19:40:57.059Z,23.90
2023-02-21T19:48:22.970Z,25.65
2023-02-21T19:51:24.233Z,28.75
2023-02-21T19:59:25.715Z,26.20
2023-02-21T20:02:30.404Z,27.73
2023-02-21T20:09:10.134Z,24.23
2023-02-21T20:16:44.315Z,35.10
2023-02-21T21:04:20.843Z,44.72
2023-02-21T21:06:58.838Z,41.60
2023-02-21T21:09:56.367Z,52.35
2023-02-21T21:13:02.116Z,41.15
2023-02-21T21:15:48.870Z,45.53
2023-02-21T21:19:46.072Z,43.13
2023-02-21T21:22:55.516Z,47.47
2023-02-21T21:25:29.120Z,47.92
2023-02-21T21:28:51.369Z,44.10
2023-02-21T21:31:28.167Z,43.30
2023-02-21T21:34:32.013Z,41.83
2023-02-21T21:37:43.287Z,44.17
2023-02-21T21:40:54.553Z,49.72
2023-02-21T21:43:29.748Z,52.40
2023-02-21T21:46:14.689Z,54.50
2023-02-21T21:48:46.316Z,50.03
2023-02-21T22:01:07.646Z,49.78
2023-02-21T22:17:19.230Z,44.10
2023-02-21T22:20:21.723Z,43.17
2023-02-21T22:23:35.023Z,37.85
2023-02-21T22:26:13.940Z,37.20
2023-02-21T22:28:58.254Z,33.38
2023-02-21T22:36:14.689Z,45.47
2023-02-21T22:38:36.967Z,44.72
2023-02-21T22:41:59.441Z,34.22
2023-02-21T22:44:55.262Z,43.53
2023-02-21T22:47:53.819Z,35.90
2023-02-21T22:50:40.553Z,35.35
2023-02-21T22:53:34.811Z,40.08
2023-02-21T22:56:25.671Z,49.90
2023-02-21T22:59:06.403Z,36.40
2023-02-21T23:01:46.845Z,33.15
2023-02-21T23:04:57.029Z,36.33
2023-02-21T23:07:33.209Z,34.35
2023-02-21T23:10:35.475Z,40.53
2023-02-21T23:13:23.586Z,32.30
2023-02-21T23:16:05.381Z,36.17
2023-02-21T23:18:51.980Z,34.80
2023-02-21T23:21:35.852Z,33.90
2023-02-21T23:24:16.111Z,34.97
2023-02-21T23:27:12.234Z,36.20
2023-02-21T23:30:00.641Z,33.05
2023-02-21T23:33:01.825Z,35.33
2023-02-21T23:37:18.130Z,29.63
2023-02-21T23:38:54.400Z,32.22
2023-02-21T23:41:58.205Z,34.58
2023-02-21T23:45:01.188Z,30.48
2023-02-21T23:47:41.096Z,29.77
2023-02-21T23:50:49.046Z,26.42
2023-02-21T23:53:34.412Z,28.52
2023-02-21T23:56:31.182Z,33.72
2023-02-21T23:59:12.547Z,35.13
